createdAt,value
2018-07-10T00:02:07.340Z,2.27
2018-07-10T00:04:49.745Z,2.10
2018-07-10T00:07:23.913Z,1.90
2018-07-10T00:10:28.272Z,2.20
2018-07-10T00:12:57.029Z,2.23
2018-07-10T00:15:25.821Z,2.70
2018-07-10T00:20:51.813Z,2.33
2018-07-10T00:23:20.576Z,2.30
2018-07-10T00:25:49.345Z,2.43
2018-07-10T00:28:18.105Z,2.60
2018-07-10T00:30:46.868Z,2.23
2018-07-10T00:33:15.632Z,2.30
2018-07-10T00:35:44.413Z,2.47
2018-07-10T00:38:24.778Z,2.30
2018-07-10T00:40:53.545Z,2.30
2018-07-10T00:43:22.330Z,2.07
2018-07-10T00:45:51.122Z,2.80
2018-07-10T00:48:19.888Z,2.30
2018-07-10T00:50:48.689Z,2.73
2018-07-10T00:53:17.437Z,2.50
2018-07-10T00:55:46.248Z,2.17
2018-07-10T00:58:15.014Z,2.10
2018-07-10T01:00:47.229Z,2.37
2018-07-10T01:03:15.994Z,1.73
2018-07-10T01:05:44.752Z,2.03
2018-07-10T01:08:13.565Z,2.13
2018-07-10T01:10:44.841Z,2.17
2018-07-10T01:13:13.568Z,1.90
2018-07-10T01:15:42.159Z,2.33
2018-07-10T01:18:10.841Z,2.27
2018-07-10T01:20:39.633Z,2.20
2018-07-10T01:23:08.180Z,1.90
2018-07-10T01:25:36.854Z,1.80
2018-07-10T01:28:05.629Z,2.57
2018-07-10T01:30:34.391Z,2.07
2018-07-10T01:33:03.150Z,2.60
2018-07-10T01:35:31.735Z,2.30
2018-07-10T01:38:00.192Z,2.20
2018-07-10T01:40:28.874Z,2.07
2018-07-10T01:42:57.717Z,2.30
2018-07-10T01:45:26.725Z,2.20
2018-07-10T01:47:55.589Z,1.93
2018-07-10T01:50:24.160Z,2.00
2018-07-10T01:52:52.617Z,1.87
2018-07-10T01:55:21.437Z,2.40
2018-07-10T01:57:50.905Z,2.50
2018-07-10T02:00:51.681Z,2.00
2018-07-10T02:03:20.249Z,2.60
2018-07-10T02:05:48.918Z,2.60
2018-07-10T02:08:17.697Z,2.27
2018-07-10T02:10:46.466Z,2.53
2018-07-10T02:13:15.265Z,2.20
2018-07-10T02:15:44.036Z,2.63
2018-07-10T02:18:12.786Z,2.67
2018-07-10T02:21:01.991Z,2.50
2018-07-10T02:23:36.761Z,3.20
2018-07-10T02:26:06.789Z,2.77
2018-07-10T02:28:35.704Z,2.60
2018-07-10T02:31:04.478Z,2.60
2018-07-10T02:33:33.277Z,2.60
2018-07-10T02:36:02.065Z,2.97
2018-07-10T02:38:30.613Z,2.50
2018-07-10T02:40:59.777Z,2.80
2018-07-10T02:43:28.542Z,2.20
2018-07-10T02:45:57.617Z,2.33
2018-07-10T02:48:29.801Z,2.70
2018-07-10T02:51:00.147Z,2.40
2018-07-10T02:53:30.135Z,2.50
2018-07-10T02:55:58.718Z,2.77
2018-07-10T02:58:28.700Z,2.90
2018-07-10T03:00:57.463Z,2.73
2018-07-10T03:03:26.421Z,2.77
2018-07-10T03:05:54.953Z,3.20
2018-07-10T03:08:23.629Z,3.03
2018-07-10T03:10:52.448Z,3.23
2018-07-10T03:13:21.252Z,3.03
2018-07-10T03:15:50.007Z,2.70
2018-07-10T03:18:18.818Z,3.20
2018-07-10T03:20:47.569Z,3.00
2018-07-10T03:23:16.397Z,3.10
2018-07-10T03:25:45.145Z,2.77
2018-07-10T03:28:13.981Z,3.80
2018-07-10T03:30:42.520Z,3.50
2018-07-10T03:33:11.205Z,3.37
2018-07-10T03:35:40.030Z,3.40
2018-07-10T03:38:08.817Z,4.17
2018-07-10T03:40:37.625Z,4.00
2018-07-10T03:43:06.179Z,3.57
2018-07-10T03:45:34.841Z,3.90
2018-07-10T03:48:03.598Z,4.50
2018-07-10T03:50:33.489Z,4.23
2018-07-10T03:53:02.696Z,4.90
2018-07-10T03:55:31.805Z,4.40
2018-07-10T03:58:00.497Z,4.47
2018-07-10T04:00:29.972Z,4.87
2018-07-10T04:02:58.708Z,4.30
2018-07-10T04:05:27.453Z,4.37
2018-07-10T04:07:57.352Z,4.77
2018-07-10T04:10:29.594Z,5.23
2018-07-10T04:13:03.088Z,5.50
2018-07-10T04:15:31.828Z,4.43
2018-07-10T04:18:04.937Z,5.00
2018-07-10T04:21:45.981Z,5.73
2018-07-10T04:24:17.641Z,5.93
2018-07-10T04:26:54.966Z,5.10
2018-07-10T04:29:29.417Z,5.17
2018-07-10T04:31:59.996Z,4.90
2018-07-10T04:34:29.204Z,5.13
2018-07-10T04:37:01.411Z,4.97
2018-07-10T04:39:30.169Z,5.63
2018-07-10T04:42:06.773Z,5.23
2018-07-10T04:44:35.560Z,5.40
2018-07-10T04:47:10.921Z,5.10
2018-07-10T04:49:49.029Z,5.93
2018-07-10T04:52:27.070Z,5.20
2018-07-10T04:55:11.468Z,6.17
2018-07-10T04:57:49.333Z,5.33
2018-07-10T05:00:18.160Z,4.87
2018-07-10T05:02:46.957Z,5.20
2018-07-10T05:05:15.713Z,4.90
2018-07-10T05:07:44.469Z,5.50
2018-07-10T05:10:13.229Z,5.20
2018-07-10T05:12:44.244Z,4.97
2018-07-10T05:15:13.519Z,5.30
2018-07-10T05:17:42.543Z,4.13
2018-07-10T05:20:11.600Z,5.17
2018-07-10T05:22:41.757Z,3.90
2018-07-10T05:25:10.417Z,5.13
2018-07-10T05:27:39.209Z,5.07
2018-07-10T05:30:08.024Z,5.30
2018-07-10T05:32:36.872Z,4.90
2018-07-10T05:35:05.753Z,5.23
2018-07-10T05:37:36.714Z,5.23
2018-07-10T05:40:08.813Z,4.97
2018-07-10T05:42:43.232Z,4.47
2018-07-10T05:45:12.861Z,5.27
2018-07-10T05:47:41.625Z,5.53
2018-07-10T05:50:13.653Z,5.63
2018-07-10T05:52:42.593Z,5.20
2018-07-10T05:55:11.913Z,5.30
2018-07-10T05:57:40.775Z,4.60
2018-07-10T06:00:09.562Z,4.83
2018-07-10T06:02:38.337Z,5.87
2018-07-10T06:05:07.109Z,4.40
2018-07-10T06:07:35.929Z,4.53
2018-07-10T06:10:04.753Z,4.43
2018-07-10T06:12:33.505Z,4.83
2018-07-10T06:15:02.301Z,4.63
2018-07-10T06:17:31.674Z,5.17
2018-07-10T06:20:00.901Z,4.63
2018-07-10T06:22:29.738Z,4.67
2018-07-10T06:25:03.674Z,3.90
2018-07-10T06:28:38.666Z,4.23
2018-07-10T06:31:12.105Z,4.07
2018-07-10T06:33:45.537Z,3.80
2018-07-10T06:36:21.338Z,3.20
2018-07-10T06:38:51.573Z,3.67
2018-07-10T06:41:20.204Z,3.50
2018-07-10T06:43:52.281Z,3.17
2018-07-10T06:46:25.550Z,3.50
2018-07-10T06:48:55.386Z,3.63
2018-07-10T06:51:24.369Z,3.00
2018-07-10T06:53:56.141Z,3.57
2018-07-10T06:56:28.550Z,3.10
2018-07-10T06:58:57.257Z,3.00
2018-07-10T07:01:26.069Z,2.93
2018-07-10T07:04:05.365Z,3.20
2018-07-10T07:06:33.982Z,3.70
2018-07-10T07:09:02.651Z,3.03
2018-07-10T07:11:31.409Z,2.93
2018-07-10T07:14:00.185Z,3.07
2018-07-10T07:16:28.949Z,2.90
2018-07-10T07:18:57.700Z,3.00
2018-07-10T07:21:26.469Z,2.77
2018-07-10T07:23:55.215Z,2.17
2018-07-10T07:26:23.970Z,2.13
2018-07-10T07:28:52.930Z,2.20
2018-07-10T07:31:21.693Z,2.50
2018-07-10T07:33:50.453Z,2.00
2018-07-10T07:36:19.225Z,2.20
2018-07-10T07:38:48.341Z,2.40
2018-07-10T07:41:17.100Z,2.20
2018-07-10T07:43:46.591Z,2.20
2018-07-10T07:46:15.345Z,1.97
2018-07-10T07:48:44.113Z,1.90
2018-07-10T07:51:12.885Z,2.07
2018-07-10T07:53:42.350Z,2.00
2018-07-10T07:56:11.195Z,2.60
2018-07-10T07:58:39.959Z,1.97
2018-07-10T08:01:08.713Z,2.50
2018-07-10T08:03:37.700Z,1.97
2018-07-10T08:06:07.165Z,1.90
2018-07-10T08:08:35.917Z,2.03
2018-07-10T08:11:04.453Z,2.00
2018-07-10T08:13:33.149Z,2.03
2018-07-10T08:16:01.900Z,1.73
2018-07-10T08:18:30.742Z,1.40
2018-07-10T08:20:59.501Z,1.87
2018-07-10T08:23:28.293Z,1.90
2018-07-10T08:25:58.104Z,1.93
2018-07-10T08:28:26.850Z,2.00
2018-07-10T08:30:55.825Z,2.77
2018-07-10T08:33:24.396Z,2.90
2018-07-10T08:35:53.113Z,2.37
2018-07-10T08:38:31.960Z,1.97
2018-07-10T08:41:00.701Z,1.97
2018-07-10T08:43:30.058Z,2.20
2018-07-10T08:45:59.049Z,2.50
2018-07-10T08:48:27.892Z,1.80
2018-07-10T08:50:57.644Z,2.07
2018-07-10T08:53:26.869Z,1.80
2018-07-10T08:55:55.609Z,1.83
2018-07-10T08:58:24.384Z,1.67
2018-07-10T09:00:53.225Z,1.93
2018-07-10T09:03:22.006Z,1.97
2018-07-10T09:05:50.771Z,1.87
2018-07-10T09:08:19.308Z,1.80
2018-07-10T09:10:47.983Z,1.80
2018-07-10T09:13:16.758Z,1.90
2018-07-10T09:15:45.506Z,1.70
2018-07-10T09:18:14.332Z,2.03
2018-07-10T09:20:49.309Z,1.70
2018-07-10T09:23:19.243Z,1.90
2018-07-10T09:25:51.261Z,1.77
2018-07-10T09:28:21.079Z,2.27
2018-07-10T09:30:50.166Z,1.90
2018-07-10T09:33:18.937Z,1.87
2018-07-10T09:35:47.718Z,1.77
2018-07-10T09:38:16.489Z,1.90
2018-07-10T09:40:45.223Z,2.30
2018-07-10T09:43:14.214Z,1.50
2018-07-10T09:45:43.134Z,1.73
2018-07-10T09:48:11.901Z,1.70
2018-07-10T09:50:40.722Z,1.90
2018-07-10T09:53:09.349Z,1.60
2018-07-10T09:55:37.965Z,1.80
2018-07-10T09:58:07.401Z,1.90
2018-07-10T10:00:41.869Z,2.13
2018-07-10T10:03:10.777Z,1.50
2018-07-10T10:05:41.329Z,1.53
2018-07-10T10:08:10.632Z,1.80
2018-07-10T10:10:39.439Z,2.13
2018-07-10T10:13:08.225Z,2.03
2018-07-10T10:15:37.614Z,1.57
2018-07-10T10:18:08.816Z,1.83
2018-07-10T10:20:39.054Z,1.57
2018-07-10T10:23:10.469Z,1.20
2018-07-10T10:25:54.893Z,1.90
2018-07-10T10:28:24.496Z,1.37
2018-07-10T10:30:53.052Z,1.30
2018-07-10T10:33:21.785Z,1.80
2018-07-10T10:35:50.547Z,1.10
2018-07-10T10:38:19.311Z,1.50
2018-07-10T10:40:48.899Z,1.80
2018-07-10T10:43:17.643Z,1.50
2018-07-10T10:45:46.340Z,1.20
2018-07-10T10:48:15.826Z,1.33
2018-07-10T10:50:47.585Z,1.30
2018-07-10T10:53:16.590Z,1.57
2018-07-10T10:55:45.281Z,1.60
2018-07-10T10:58:13.993Z,1.13
2018-07-10T11:00:42.693Z,1.70
2018-07-10T11:03:11.591Z,1.23
2018-07-10T11:05:40.413Z,1.53
2018-07-10T11:08:09.145Z,1.37
2018-07-10T11:10:37.899Z,1.43
2018-07-10T11:13:06.451Z,1.70
2018-07-10T11:15:40.772Z,1.40
2018-07-10T11:18:11.881Z,1.40
2018-07-10T11:21:05.479Z,1.77
2018-07-10T11:23:52.962Z,1.43
2018-07-10T11:26:30.243Z,1.00
2018-07-10T11:28:59.136Z,1.33
2018-07-10T11:31:27.887Z,1.20
2018-07-10T11:33:56.853Z,1.10
2018-07-10T11:36:25.634Z,1.23
2018-07-10T11:38:57.181Z,1.30
2018-07-10T11:41:25.942Z,1.30
2018-07-10T11:43:54.702Z,1.23
2018-07-10T11:46:23.525Z,1.30
2018-07-10T11:48:52.337Z,1.10
2018-07-10T11:51:21.127Z,1.20
2018-07-10T11:53:49.620Z,1.10
2018-07-10T11:56:18.318Z,1.40
2018-07-10T11:58:47.078Z,1.00
2018-07-10T12:01:15.841Z,1.57
2018-07-10T12:03:44.595Z,1.03
2018-07-10T12:06:13.392Z,1.20
2018-07-10T12:08:46.888Z,1.13
2018-07-10T12:11:17.210Z,1.50
2018-07-10T12:13:46.021Z,1.67
2018-07-10T12:16:15.121Z,1.10
2018-07-10T12:18:43.882Z,1.70
2018-07-10T12:21:15.649Z,1.40
2018-07-10T12:23:44.438Z,1.30
2018-07-10T12:26:13.197Z,1.30
2018-07-10T12:28:42.093Z,1.23
2018-07-10T12:31:10.871Z,1.10
2018-07-10T12:33:39.598Z,1.30
2018-07-10T12:36:15.200Z,1.27
2018-07-10T12:38:43.963Z,1.80
2018-07-10T12:41:12.712Z,1.50
2018-07-10T12:43:41.452Z,1.43
2018-07-10T12:46:10.379Z,1.73
2018-07-10T12:48:44.123Z,1.40
2018-07-10T12:51:12.873Z,1.50
2018-07-10T12:53:41.575Z,1.40
2018-07-10T12:56:10.350Z,1.40
2018-07-10T12:58:40.307Z,1.23
2018-07-10T13:01:09.151Z,1.27
2018-07-10T13:03:37.859Z,1.30
2018-07-10T13:06:06.612Z,1.70
2018-07-10T13:08:35.332Z,1.30
2018-07-10T13:11:04.293Z,1.20
2018-07-10T13:13:33.014Z,1.60
2018-07-10T13:16:01.780Z,1.17
2018-07-10T13:18:33.626Z,1.27
2018-07-10T13:21:02.380Z,1.40
2018-07-10T13:23:31.181Z,1.67
2018-07-10T13:25:59.945Z,1.20
2018-07-10T13:28:28.692Z,1.23
2018-07-10T13:30:57.453Z,1.27
2018-07-10T13:33:26.185Z,1.23
2018-07-10T13:35:55.010Z,1.20
2018-07-10T13:38:24.537Z,1.17
2018-07-10T13:40:54.300Z,1.83
2018-07-10T13:43:22.856Z,1.57
2018-07-10T13:45:51.542Z,1.60
2018-07-10T13:48:20.296Z,1.00
2018-07-10T13:50:49.049Z,1.20
2018-07-10T13:53:17.576Z,1.30
2018-07-10T13:55:46.241Z,1.10
2018-07-10T13:58:17.699Z,0.90
2018-07-10T14:00:54.385Z,1.30
2018-07-10T14:03:23.357Z,1.00
2018-07-10T14:05:52.165Z,1.30
2018-07-10T14:08:21.050Z,0.90
2018-07-10T14:10:49.867Z,1.63
2018-07-10T14:13:18.690Z,0.97
2018-07-10T14:15:47.240Z,0.87
2018-07-10T14:18:15.915Z,1.10
2018-07-10T14:20:51.873Z,1.10
2018-07-10T14:23:20.993Z,1.07
2018-07-10T14:25:50.517Z,1.23
2018-07-10T14:28:19.383Z,0.90
2018-07-10T14:30:48.160Z,0.90
2018-07-10T14:33:16.926Z,1.10
2018-07-10T14:35:46.088Z,1.40
2018-07-10T14:38:16.001Z,0.90
2018-07-10T14:40:46.843Z,0.80
2018-07-10T14:43:18.039Z,1.00
2018-07-10T14:45:46.703Z,1.00
2018-07-10T14:48:15.458Z,1.30
2018-07-10T14:50:43.991Z,1.13
2018-07-10T14:53:12.680Z,1.10
2018-07-10T14:55:41.434Z,1.23
2018-07-10T14:58:10.193Z,1.63
2018-07-10T15:00:38.961Z,0.93
2018-07-10T15:03:07.774Z,1.47
2018-07-10T15:05:36.489Z,0.90
2018-07-10T15:08:05.292Z,1.20
2018-07-10T15:10:33.985Z,1.27
2018-07-10T15:13:02.750Z,1.70
2018-07-10T15:15:31.572Z,1.53
2018-07-10T15:18:05.901Z,1.30
2018-07-10T15:20:34.661Z,1.10
2018-07-10T15:23:04.841Z,1.30
2018-07-10T15:25:33.607Z,1.20
2018-07-10T15:28:02.936Z,1.40
2018-07-10T15:30:31.874Z,1.20
2018-07-10T15:33:00.904Z,1.30
2018-07-10T15:35:29.650Z,1.20
2018-07-10T15:37:58.396Z,1.40
2018-07-10T15:40:27.154Z,1.23
2018-07-10T15:42:55.904Z,1.40
2018-07-10T15:45:24.641Z,1.43
2018-07-10T15:47:53.397Z,1.90
2018-07-10T15:50:22.142Z,1.47
2018-07-10T15:52:50.905Z,1.80
2018-07-10T15:55:19.781Z,2.17
2018-07-10T15:57:48.558Z,1.53
2018-07-10T16:00:17.297Z,1.40
2018-07-10T16:02:46.064Z,2.20
2018-07-10T16:05:14.907Z,1.80
2018-07-10T16:07:43.716Z,1.60
2018-07-10T16:10:12.671Z,1.37
2018-07-10T16:12:41.420Z,1.80
2018-07-10T16:15:10.342Z,1.80
2018-07-10T16:17:39.224Z,1.80
2018-07-10T16:20:09.422Z,1.63
2018-07-10T16:22:39.216Z,2.10
2018-07-10T16:25:17.295Z,1.83
2018-07-10T16:27:48.164Z,1.50
2018-07-10T16:30:20.869Z,1.70
2018-07-10T16:32:49.969Z,2.40
2018-07-10T16:35:20.148Z,1.60
2018-07-10T16:37:49.992Z,1.80
2018-07-10T16:40:18.549Z,2.27
2018-07-10T16:42:48.094Z,2.13
2018-07-10T16:45:21.733Z,1.90
2018-07-10T16:49:02.651Z,1.83
2018-07-10T16:51:45.233Z,1.80
2018-07-10T16:54:14.285Z,2.10
2018-07-10T16:56:42.829Z,1.77
2018-07-10T16:59:11.725Z,1.87
2018-07-10T17:01:41.292Z,1.80
2018-07-10T17:04:10.054Z,1.93
2018-07-10T17:06:38.802Z,1.60
2018-07-10T17:09:07.625Z,1.63
2018-07-10T17:11:36.392Z,2.13
2018-07-10T17:14:05.210Z,2.13
2018-07-10T17:16:33.753Z,1.80
2018-07-10T17:19:02.494Z,2.03
2018-07-10T17:21:31.029Z,2.53
2018-07-10T17:24:00.988Z,2.10
2018-07-10T17:26:29.872Z,2.83
2018-07-10T17:29:03.322Z,3.47
2018-07-10T17:31:32.060Z,4.13
2018-07-10T17:34:00.601Z,3.17
2018-07-10T17:36:29.294Z,3.77
2018-07-10T17:38:58.269Z,2.23
2018-07-10T17:41:29.545Z,2.60
2018-07-10T17:43:58.357Z,3.17
2018-07-10T17:46:26.920Z,2.70
2018-07-10T17:48:55.601Z,3.20
2018-07-10T17:51:24.373Z,3.10
2018-07-10T17:53:53.170Z,2.70
2018-07-10T17:56:22.078Z,2.97
2018-07-10T17:58:51.069Z,2.70
2018-07-10T18:01:19.845Z,3.67
2018-07-10T18:03:48.706Z,3.50
2018-07-10T18:06:17.490Z,2.30
2018-07-10T18:08:46.276Z,4.10
2018-07-10T18:11:15.088Z,2.17
2018-07-10T18:13:43.807Z,2.43
2018-07-10T18:16:12.562Z,2.50
2018-07-10T18:18:41.338Z,3.00
2018-07-10T18:21:10.102Z,2.30
2018-07-10T18:23:39.029Z,2.27
2018-07-10T18:26:07.805Z,2.00
2018-07-10T18:28:36.555Z,1.93
2018-07-10T18:31:05.498Z,1.87
2018-07-10T18:33:34.389Z,1.80
2018-07-10T18:36:03.167Z,1.97
2018-07-10T18:38:32.042Z,1.80
2018-07-10T18:41:00.846Z,1.40
2018-07-10T18:43:29.601Z,2.47
2018-07-10T18:45:58.148Z,2.53
2018-07-10T18:48:27.337Z,1.70
2018-07-10T18:50:56.759Z,2.00
2018-07-10T18:53:26.698Z,2.13
2018-07-10T18:55:55.314Z,1.97
2018-07-10T18:58:37.039Z,2.33
2018-07-10T19:01:19.244Z,2.63
2018-07-10T19:03:48.839Z,2.60
2018-07-10T19:06:20.780Z,3.03
2018-07-10T19:08:49.615Z,2.10
2018-07-10T19:11:21.105Z,2.57
2018-07-10T19:13:49.925Z,2.40
2018-07-10T19:16:18.685Z,2.30
2018-07-10T19:18:51.237Z,2.67
2018-07-10T19:21:25.076Z,2.00
2018-07-10T19:23:55.957Z,2.77
2018-07-10T19:26:26.356Z,2.40
2018-07-10T19:29:08.851Z,2.33
2018-07-10T19:31:37.568Z,2.47
2018-07-10T19:34:06.340Z,2.43
2018-07-10T19:36:35.100Z,3.20
2018-07-10T19:39:06.291Z,2.20
2018-07-10T19:41:35.057Z,2.70
2018-07-10T19:44:04.055Z,2.70
2018-07-10T19:46:34.550Z,2.30
2018-07-10T19:49:04.122Z,2.50
2018-07-10T19:51:32.793Z,2.30
2018-07-10T19:54:07.784Z,2.40
2018-07-10T19:56:36.957Z,2.97
2018-07-10T19:59:06.995Z,2.97
2018-07-10T20:01:53.901Z,4.10
2018-07-10T20:05:25.733Z,3.97
2018-07-10T20:08:11.155Z,3.87
2018-07-10T20:10:53.622Z,4.37
2018-07-10T20:13:45.818Z,3.27
2018-07-10T20:16:18.956Z,3.87
2018-07-10T20:18:57.297Z,3.43
2018-07-10T20:21:31.505Z,3.77
2018-07-10T20:24:05.133Z,4.27
2018-07-10T20:28:48.491Z,3.90
2018-07-10T20:31:25.710Z,3.87
2018-07-10T20:33:57.884Z,3.43
2018-07-10T20:36:26.761Z,4.00
2018-07-10T20:38:57.153Z,4.40
2018-07-10T20:41:31.522Z,4.00
2018-07-10T20:44:04.090Z,4.03
2018-07-10T20:46:34.269Z,3.50
2018-07-10T20:49:04.481Z,3.93
2018-07-10T20:52:06.556Z,4.23
2018-07-10T20:54:52.690Z,3.83
2018-07-10T20:57:25.781Z,3.70
2018-07-10T21:00:03.417Z,3.73
2018-07-10T21:04:48.382Z,4.47
2018-07-10T21:07:26.978Z,5.47
2018-07-10T21:10:11.654Z,4.30
2018-07-10T21:13:19.389Z,3.87
2018-07-10T21:15:57.960Z,4.20
2018-07-10T21:18:33.245Z,4.67
2018-07-10T21:21:06.560Z,4.20
2018-07-10T21:23:48.323Z,5.97
2018-07-10T21:26:28.965Z,4.70
2018-07-10T21:29:04.670Z,4.40
2018-07-10T21:31:40.496Z,4.43
2018-07-10T21:34:12.604Z,4.17
2018-07-10T21:37:04.184Z,4.20
2018-07-10T21:41:45.953Z,3.57
2018-07-10T21:46:28.287Z,4.40
2018-07-10T21:49:05.065Z,4.80
2018-07-10T21:51:33.957Z,5.27
2018-07-10T21:54:02.721Z,4.27
2018-07-10T21:56:31.725Z,4.17
2018-07-10T21:59:00.213Z,4.27
2018-07-10T22:01:44.307Z,4.63
2018-07-10T22:04:21.749Z,5.17
2018-07-10T22:06:51.627Z,4.13
2018-07-10T22:09:21.192Z,5.17
2018-07-10T22:11:49.957Z,4.50
2018-07-10T22:14:18.991Z,3.90
2018-07-10T22:16:47.550Z,4.40
2018-07-10T22:19:21.768Z,3.57
2018-07-10T22:21:50.580Z,4.00
2018-07-10T22:24:19.380Z,3.90
2018-07-10T22:26:48.298Z,3.17
2018-07-10T22:29:20.673Z,3.20
2018-07-10T22:31:54.687Z,3.63
2018-07-10T22:34:23.743Z,3.63
2018-07-10T22:36:52.517Z,3.20
2018-07-10T22:39:21.305Z,3.30
2018-07-10T22:41:51.632Z,3.60
2018-07-10T22:44:20.445Z,3.47
2018-07-10T22:46:49.263Z,3.20
2018-07-10T22:49:17.959Z,3.57
2018-07-10T22:51:46.733Z,3.73
2018-07-10T22:54:15.493Z,3.90
2018-07-10T22:56:44.261Z,3.73
2018-07-10T22:59:13.041Z,4.07
2018-07-10T23:01:41.814Z,4.60
2018-07-10T23:04:10.785Z,4.37
2018-07-10T23:06:39.560Z,4.23
2018-07-10T23:09:08.964Z,4.23
2018-07-10T23:11:38.285Z,4.63
2018-07-10T23:14:07.087Z,4.17
2018-07-10T23:16:37.358Z,4.27
2018-07-10T23:19:06.703Z,5.00
2018-07-10T23:21:36.847Z,4.77
2018-07-10T23:24:05.738Z,4.83
2018-07-10T23:26:34.537Z,4.50
2018-07-10T23:29:03.678Z,4.53
2018-07-10T23:31:32.477Z,5.13
2018-07-10T23:34:32.605Z,5.13
2018-07-10T23:37:01.545Z,5.50
2018-07-10T23:39:35.875Z,5.13
2018-07-10T23:42:38.945Z,5.13
2018-07-10T23:45:14.907Z,5.07
2018-07-10T23:47:46.225Z,5.50
2018-07-10T23:50:19.429Z,5.10
2018-07-10T23:53:27.326Z,5.43
2018-07-10T23:55:56.097Z,5.80
2018-07-10T23:58:24.875Z,5.87
